Time;durP1;ratioP1;P1;durP2;ratioP2;P2;SDS_P1;SDS_P2;PMS_P1;PMS_P2;Temp;Humidity;BMP_temperature;BMP_pressure;BME280_temperature;BME280_humidity;BME280_pressure;Samples;Min_cycle;Max_cycle;Signal;HPM_P1;HPM_P2
2020/12/23 00:00:54;;;;;;;1.97;1.60;;;14.90;1.00;;;;;;5087560;28;20212;-76
2020/12/23 00:03:24;;;;;;;4.40;2.10;;;13.80;1.00;;;;;;5086682;28;20410;-76
2020/12/23 00:05:54;;;;;;;1.80;1.60;;;13.90;1.00;;;;;;5074169;28;20459;-76
2020/12/23 00:08:24;;;;;;;1.60;1.50;;;13.80;1.00;;;;;;5073937;28;20416;-76
2020/12/23 00:10:56;;;;;;;1.47;1.37;;;13.80;1.00;;;;;;5074179;28;20911;-76
2020/12/23 00:13:24;;;;;;;3.27;1.50;;;13.80;1.00;;;;;;5073882;28;20413;-76
2020/12/23 00:15:54;;;;;;;1.80;1.70;;;13.90;1.00;;;;;;5074173;28;20515;-78
2020/12/23 00:18:27;;;;;;;1.70;1.57;;;13.90;1.00;;;;;;5073622;28;20449;-78
2020/12/23 00:20:54;;;;;;;1.73;1.57;;;13.80;1.00;;;;;;5073741;28;20433;-78
2020/12/23 00:23:24;;;;;;;1.57;1.20;;;13.80;1.00;;;;;;5073170;28;20414;-78
2020/12/23 00:26:18;;;;;;;7.23;1.73;;;13.80;1.00;;;;;;5073663;28;20440;-78
2020/12/23 00:28:43;;;;;;;1.43;1.33;;;13.80;1.00;;;;;;5077372;28;20417;-78
2020/12/23 00:31:18;;;;;;;1.60;1.20;;;13.90;1.00;;;;;;5086808;28;20410;-76
2020/12/23 00:34:00;;;;;;;1.27;1.27;;;13.80;1.00;;;;;;5079402;28;20660;-76
2020/12/23 00:36:36;;;;;;;1.07;1.07;;;13.80;1.00;;;;;;5073852;28;20517;-76
2020/12/23 00:39:06;;;;;;;1.00;0.93;;;13.80;1.00;;;;;;5073388;28;20792;-76
2020/12/23 00:41:49;;;;;;;1.60;1.37;;;13.80;1.00;;;;;;5073974;28;20903;-76
2020/12/23 00:44:18;;;;;;;1.10;1.10;;;13.90;1.00;;;;;;5073829;28;20424;-76
2020/12/23 00:46:45;;;;;;;2.00;1.43;;;13.80;1.00;;;;;;5074522;28;20397;-78
2020/12/23 00:49:11;;;;;;;1.40;1.30;;;13.80;1.00;;;;;;5077105;28;20770;-78
2020/12/23 00:52:00;;;;;;;1.20;1.17;;;13.80;1.00;;;;;;5093741;28;20389;-78
2020/12/23 00:54:42;;;;;;;1.07;1.00;;;13.90;1.00;;;;;;5080442;28;20397;-78
2020/12/23 00:57:18;;;;;;;1.20;1.07;;;13.90;1.00;;;;;;5073248;28;20470;-78
2020/12/23 00:59:48;;;;;;;1.03;1.03;;;13.90;1.00;;;;;;5073376;28;20386;-78
2020/12/23 01:02:18;;;;;;;2.20;1.30;;;13.90;1.00;;;;;;5074569;28;20957;-78
2020/12/23 01:05:18;;;;;;;1.63;1.20;;;13.90;1.00;;;;;;5073394;28;20458;-78
2020/12/23 01:08:00;;;;;;;1.20;1.10;;;13.80;1.00;;;;;;5089760;28;20412;-78
2020/12/23 01:11:18;;;;;;;1.00;0.80;;;13.80;1.00;;;;;;5080842;28;21022;-78
2020/12/23 01:13:48;;;;;;;1.80;0.80;;;13.80;1.00;;;;;;5082932;28;20469;-79
2020/12/23 01:16:22;;;;;;;0.50;0.50;;;13.70;1.00;;;;;;5076585;28;20855;-78
2020/12/23 01:18:49;;;;;;;1.07;0.70;;;13.70;1.00;;;;;;5072838;28;20815;-78
2020/12/23 01:21:48;;;;;;;1.47;0.70;;;13.70;1.00;;;;;;5073155;28;20401;-78
2020/12/23 01:24:48;;;;;;;0.60;0.60;;;13.60;1.00;;;;;;5073081;28;20433;-78
2020/12/23 01:27:36;;;;;;;1.77;0.80;;;13.60;1.00;;;;;;5083958;28;20504;-78
2020/12/23 01:30:18;;;;;;;0.60;0.60;;;13.60;1.00;;;;;;5076128;28;20399;-78
2020/12/23 01:32:48;;;;;;;0.50;0.50;;;13.70;1.00;;;;;;5077104;28;20385;-75
2020/12/23 01:35:14;;;;;;;0.60;0.53;;;13.70;1.00;;;;;;5076688;28;20397;-76
2020/12/23 01:37:39;;;;;;;1.20;0.80;;;13.70;1.00;;;;;;5076964;28;20950;-76
2020/12/23 01:40:12;;;;;;;15.00;0.80;;;13.70;1.00;;;;;;5076622;28;20167;-76
2020/12/23 01:42:38;;;;;;;5.63;1.67;;;13.70;1.00;;;;;;5076590;28;20174;-76
2020/12/23 01:45:19;;;;;;;0.93;0.80;;;13.70;1.00;;;;;;5076774;28;20394;-76
2020/12/23 01:47:48;;;;;;;0.77;0.70;;;13.70;1.00;;;;;;5080200;28;20179;-76
2020/12/23 01:50:18;;;;;;;1.50;1.13;;;13.70;1.00;;;;;;5076845;28;20798;-76
2020/12/23 01:52:52;;;;;;;1.30;1.20;;;13.70;1.00;;;;;;5076766;28;20398;-76
2020/12/23 01:55:18;;;;;;;2.13;0.80;;;13.70;1.00;;;;;;5076560;28;20417;-76
2020/12/23 01:57:48;;;;;;;1.10;0.70;;;13.70;1.00;;;;;;5076377;28;20441;-76
2020/12/23 02:00:18;;;;;;;1.83;0.87;;;13.70;1.00;;;;;;5076318;28;20382;-76
2020/12/23 02:02:58;;;;;;;0.83;0.83;;;13.60;1.00;;;;;;5075657;28;20870;-76
2020/12/23 02:05:48;;;;;;;1.00;0.90;;;13.70;1.00;;;;;;5076592;28;20393;-76
2020/12/23 02:08:18;;;;;;;0.90;0.90;;;13.60;1.00;;;;;;5075748;28;20484;-76
2020/12/23 02:10:45;;;;;;;1.00;0.90;;;13.60;1.00;;;;;;5085456;28;20786;-76
2020/12/23 02:13:39;;;;;;;0.70;0.70;;;13.60;1.00;;;;;;5075995;28;20416;-76
2020/12/23 02:16:07;;;;;;;0.70;0.70;;;13.70;1.00;;;;;;5073154;28;20466;-76
2020/12/23 02:18:33;;;;;;;0.60;0.60;;;13.50;1.00;;;;;;5075942;28;20975;-76
2020/12/23 02:21:01;;;;;;;0.97;0.80;;;13.50;1.00;;;;;;5076016;28;20385;-76
2020/12/23 02:23:48;;;;;;;0.70;0.60;;;13.50;1.00;;;;;;5076013;28;20393;-76
2020/12/23 02:26:18;;;;;;;0.50;0.50;;;13.50;1.00;;;;;;5076225;28;20404;-76
2020/12/23 02:28:48;;;;;;;0.60;0.60;;;13.40;1.00;;;;;;5076289;28;20783;-76
2020/12/23 02:31:14;;;;;;;0.57;0.57;;;13.40;1.00;;;;;;5076043;28;20967;-76
2020/12/23 02:33:48;;;;;;;0.63;0.63;;;13.40;1.00;;;;;;5076254;28;20409;-76
2020/12/23 02:36:18;;;;;;;4.63;0.60;;;13.30;1.00;;;;;;5081326;28;20209;-76
2020/12/23 02:38:48;;;;;;;1.43;0.60;;;13.30;1.00;;;;;;5075897;28;20441;-76
2020/12/23 02:41:14;;;;;;;0.60;0.60;;;13.30;1.00;;;;;;5075468;28;20965;-76
2020/12/23 02:43:42;;;;;;;0.70;0.70;;;13.30;1.00;;;;;;5075157;28;20413;-76
2020/12/23 02:46:08;;;;;;;4.10;0.70;;;13.40;1.00;;;;;;5077230;28;20201;-76
2020/12/23 02:48:36;;;;;;;0.60;0.60;;;13.30;1.00;;;;;;5075446;28;20413;-76
2020/12/23 02:51:18;;;;;;;0.60;0.60;;;13.40;1.00;;;;;;5075143;28;20421;-77
2020/12/23 02:53:48;;;;;;;0.70;0.70;;;13.40;1.00;;;;;;5078895;28;20930;-76
2020/12/23 02:56:18;;;;;;;0.70;0.70;;;13.30;1.00;;;;;;5075255;28;20405;-76
2020/12/23 02:58:48;;;;;;;0.90;0.80;;;13.30;1.00;;;;;;5091679;28;20508;-76
2020/12/23 03:01:18;;;;;;;1.03;0.70;;;13.30;1.00;;;;;;5095764;28;20393;-76
2020/12/23 03:03:48;;;;;;;1.33;0.70;;;13.30;1.00;;;;;;5079818;28;20436;-76
2020/12/23 03:06:18;;;;;;;2.67;0.80;;;13.30;1.00;;;;;;5095342;28;20401;-76
2020/12/23 03:08:44;;;;;;;0.60;0.60;;;13.40;1.00;;;;;;5095020;28;20392;-76
2020/12/23 03:11:18;;;;;;;1.10;0.80;;;13.40;1.00;;;;;;5077021;28;20487;-76
2020/12/23 03:13:44;;;;;;;3.00;1.00;;;13.40;1.00;;;;;;5074735;28;20159;-76
2020/12/23 03:16:42;;;;;;;1.43;0.80;;;13.40;1.00;;;;;;5074772;28;20771;-76
2020/12/23 03:22:29;;;;;;;0.80;0.80;;;13.30;1.00;;;;;;5094624;28;20417;-78
2020/12/23 03:25:00;;;;;;;0.60;0.60;;;13.30;1.00;;;;;;5075263;28;20489;-78
2020/12/23 03:27:48;;;;;;;0.93;0.60;;;13.30;1.00;;;;;;5087580;28;20549;-78
2020/12/23 03:33:36;;;;;;;1.30;1.00;;;13.40;1.00;;;;;;5075806;28;20400;-78
2020/12/23 03:36:02;;;;;;;1.03;0.80;;;13.30;1.00;;;;;;5092918;28;20443;-78
2020/12/23 03:38:28;;;;;;;5.63;0.90;;;13.30;1.00;;;;;;5083888;28;20428;-78
2020/12/23 03:40:54;;;;;;;1.10;1.00;;;13.20;1.00;;;;;;5074423;28;20485;-78
2020/12/23 03:43:36;;;;;;;1.07;1.07;;;13.20;1.00;;;;;;5074103;28;20418;-78
2020/12/23 03:49:24;;;;;;;10.93;2.40;;;13.20;1.00;;;;;;5074152;28;20391;-78
2020/12/23 03:55:30;;;;;;;5.73;1.27;;;13.30;1.00;;;;;;5091842;28;20485;-78
2020/12/23 03:58:24;;;;;;;1.20;1.10;;;13.30;1.00;;;;;;5073979;28;20445;-78
2020/12/23 04:07:34;;;;;;;0.70;0.70;;;13.20;1.00;;;;;;5073539;28;20401;-78
2020/12/23 04:10:01;;;;;;;3.63;1.37;;;13.20;1.00;;;;;;5073998;28;20429;-78
2020/12/23 04:12:31;;;;;;;1.10;1.10;;;13.20;1.00;;;;;;5073577;28;20389;-78
2020/12/23 04:15:08;;;;;;;0.83;0.83;;;13.20;1.00;;;;;;5073789;28;20394;-78
2020/12/23 04:17:55;;;;;;;0.70;0.70;;;13.20;1.00;;;;;;5073806;28;20464;-78
2020/12/23 04:27:05;;;;;;;7.40;0.80;;;13.10;1.00;;;;;;5073354;28;20488;-78
2020/12/23 04:29:36;;;;;;;0.70;0.70;;;13.00;1.00;;;;;;5073644;28;20386;-78
2020/12/23 04:32:24;;;;;;;0.70;0.70;;;13.10;1.00;;;;;;5073738;28;20409;-77
2020/12/23 04:35:05;;;;;;;0.80;0.70;;;13.10;1.00;;;;;;5075884;28;20422;-76
2020/12/23 04:37:32;;;;;;;2.90;0.83;;;13.10;1.00;;;;;;5073862;28;20440;-77
2020/12/23 04:40:42;;;;;;;0.70;0.70;;;13.10;1.00;;;;;;5073627;28;20404;-76
2020/12/23 04:43:19;;;;;;;2.30;0.70;;;13.10;1.00;;;;;;5073718;28;20413;-76
2020/12/23 04:46:24;;;;;;;3.10;1.00;;;13.00;1.00;;;;;;5073802;28;20464;-76
2020/12/23 04:49:42;;;;;;;2.33;1.17;;;13.00;1.00;;;;;;5074442;28;20399;-78
2020/12/23 04:58:52;;;;;;;1.20;0.60;;;12.90;1.00;;;;;;5072991;28;20504;-78
2020/12/23 05:01:18;;;;;;;1.23;0.67;;;13.00;1.00;;;;;;5084076;28;20406;-79
2020/12/23 05:03:50;;;;;;;0.90;0.70;;;12.90;1.00;;;;;;5079961;28;20447;-76
2020/12/23 05:06:25;;;;;;;0.60;0.60;;;13.00;1.00;;;;;;5077762;28;20606;-77
2020/12/23 05:08:51;;;;;;;0.70;0.63;;;13.00;1.00;;;;;;5077269;28;20393;-76
2020/12/23 05:11:17;;;;;;;1.07;0.80;;;12.90;1.00;;;;;;5077303;28;20435;-76
2020/12/23 05:14:05;;;;;;;3.17;0.80;;;12.90;1.00;;;;;;5076722;28;20915;-76
2020/12/23 05:16:38;;;;;;;0.53;0.53;;;12.90;1.00;;;;;;5077378;28;20466;-76
2020/12/23 05:22:28;;;;;;;1.27;0.60;;;12.90;1.00;;;;;;5092026;28;20489;-78
2020/12/23 05:24:55;;;;;;;0.70;0.70;;;12.90;1.00;;;;;;5085211;28;20478;-78
2020/12/23 05:27:24;;;;;;;0.60;0.60;;;12.80;1.00;;;;;;5076847;28;20405;-78
2020/12/23 05:30:18;;;;;;;0.63;0.53;;;12.80;1.00;;;;;;5077038;28;20398;-78
2020/12/23 05:32:48;;;;;;;0.60;0.50;;;12.80;1.00;;;;;;5081887;28;20416;-78
2020/12/23 05:35:17;;;;;;;0.57;0.57;;;12.80;1.00;;;;;;5076142;28;20744;-78
2020/12/23 05:37:43;;;;;;;5.43;0.70;;;12.80;1.00;;;;;;5076484;28;20489;-78
2020/12/23 05:40:24;;;;;;;0.50;0.50;;;12.80;1.00;;;;;;5075242;28;20770;-78
2020/12/23 05:49:54;;;;;;;0.50;0.40;;;12.80;1.00;;;;;;5076503;28;20463;-76
2020/12/23 05:52:21;;;;;;;0.60;0.60;;;12.80;1.00;;;;;;5078768;28;20432;-76
2020/12/23 05:54:53;;;;;;;0.97;0.60;;;12.80;1.00;;;;;;5076700;28;20463;-76
2020/12/23 05:57:20;;;;;;;2.43;0.67;;;12.80;1.00;;;;;;5086175;28;20456;-77
2020/12/23 05:59:46;;;;;;;1.00;0.63;;;12.90;1.00;;;;;;5078705;28;20741;-76
2020/12/23 06:02:13;;;;;;;0.80;0.70;;;12.80;1.00;;;;;;5076350;28;20447;-76
2020/12/23 06:08:03;;;;;;;0.80;0.70;;;12.80;1.00;;;;;;5091051;28;20391;-78
2020/12/23 06:14:03;;;;;;;0.90;0.80;;;12.80;1.00;;;;;;5075315;28;20431;-79
2020/12/23 06:20:02;;;;;;;0.50;0.50;;;12.80;1.00;;;;;;5083870;28;20437;-76
2020/12/23 06:23:18;;;;;;;1.60;0.57;;;12.80;1.00;;;;;;5082670;28;20405;-77
2020/12/23 06:25:46;;;;;;;0.60;0.60;;;12.70;1.00;;;;;;5086256;28;20415;-76
2020/12/23 06:28:21;;;;;;;2.50;1.00;;;12.70;1.00;;;;;;5096371;28;20782;-77
2020/12/23 06:31:01;;;;;;;0.93;0.57;;;12.70;1.00;;;;;;5096290;28;20370;-76
2020/12/23 06:40:11;;;;;;;1.53;0.80;;;12.80;1.00;;;;;;5075433;28;20408;-79
2020/12/23 06:45:59;;;;;;;1.00;0.50;;;12.80;1.00;;;;;;5075686;28;20372;-78
2020/12/23 06:51:46;;;;;;;14.47;1.40;;;12.80;1.00;;;;;;5083342;28;20305;-79
2020/12/23 06:55:06;;;;;;;1.20;0.80;;;12.80;1.00;;;;;;5095709;28;20429;-79
2020/12/23 07:00:53;;;;;;;3.80;0.83;;;12.90;1.00;;;;;;5075096;28;20427;-79
2020/12/23 07:07:26;;;;;;;0.67;0.67;;;12.90;1.00;;;;;;5075260;28;20178;-77
2020/12/23 07:10:22;;;;;;;7.03;1.03;;;12.90;1.00;;;;;;5074950;28;20496;-77
2020/12/23 07:12:58;;;;;;;1.27;0.90;;;13.00;1.00;;;;;;5075733;28;20482;-77
2020/12/23 07:15:33;;;;;;;3.17;0.90;;;13.00;1.00;;;;;;5095099;28;20393;-76
2020/12/23 07:18:12;;;;;;;2.83;1.47;;;13.00;1.00;;;;;;5097992;28;21090;-76
2020/12/23 07:24:00;;;;;;;0.97;0.97;;;13.00;1.00;;;;;;5115169;28;20359;-79
2020/12/23 07:26:37;;;;;;;3.07;1.60;;;13.00;1.00;;;;;;5114741;28;20881;-78
2020/12/23 07:32:37;;;;;;;5.90;1.93;;;12.90;1.00;;;;;;5089582;28;20936;-79
2020/12/23 07:35:04;;;;;;;2.07;1.60;;;13.00;1.00;;;;;;5095305;28;20381;-79
2020/12/23 07:37:58;;;;;;;2.30;2.10;;;13.00;1.00;;;;;;5094418;28;20463;-79
2020/12/23 07:40:42;;;;;;;3.57;2.53;;;13.10;1.00;;;;;;5087614;28;20487;-79
2020/12/23 07:47:06;;;;;;;5.53;2.90;;;13.10;1.00;;;;;;5094289;28;20537;-79
2020/12/23 07:50:09;;;;;;;5.20;3.00;;;13.10;1.00;;;;;;5081477;28;20739;-76
2020/12/23 07:52:36;;;;;;;5.83;3.23;;;13.10;1.00;;;;;;5012712;28;20506;-76
2020/12/23 07:55:15;;;;;;;3.30;2.70;;;13.10;1.00;;;;;;5012422;28;20412;-76
2020/12/23 07:57:43;;;;;;;4.87;3.20;;;13.20;1.00;;;;;;4993050;28;20460;-76
2020/12/23 08:00:10;;;;;;;6.00;3.07;;;13.20;1.00;;;;;;4992731;28;20420;-77
2020/12/23 08:06:12;;;;;;;3.77;2.70;;;13.20;1.00;;;;;;4993013;28;20407;-77
2020/12/23 08:08:40;;;;;;;3.53;2.37;;;13.20;1.00;;;;;;5012485;28;20508;-76
2020/12/23 08:11:14;;;;;;;5.50;2.63;;;13.30;1.00;;;;;;5012029;28;20859;-76
2020/12/23 08:13:41;;;;;;;2.30;2.10;;;13.30;1.00;;;;;;5012041;28;20412;-76
2020/12/23 08:16:31;;;;;;;4.50;2.67;;;13.30;1.00;;;;;;4992146;28;20836;-76
2020/12/23 08:18:56;;;;;;;3.00;1.90;;;13.40;1.00;;;;;;4992559;28;20995;-76
2020/12/23 08:21:22;;;;;;;2.80;2.50;;;13.40;1.00;;;;;;5007893;28;20502;-76
2020/12/23 08:23:52;;;;;;;2.23;1.83;;;13.40;1.00;;;;;;5012072;28;20218;-76
2020/12/23 08:26:25;;;;;;;2.40;1.73;;;13.50;1.00;;;;;;5037014;28;20674;-76
2020/12/23 08:29:12;;;;;;;6.10;2.20;;;13.50;1.00;;;;;;5082191;28;20429;-76
2020/12/23 08:32:02;;;;;;;3.40;2.03;;;13.50;1.00;;;;;;5072539;28;20801;-76
2020/12/23 08:35:04;;;;;;;2.17;1.97;;;13.50;1.00;;;;;;5074099;28;20435;-77
2020/12/23 08:37:29;;;;;;;4.13;1.90;;;13.50;1.00;;;;;;5072981;28;20502;-81
2020/12/23 08:43:28;;;;;;;3.70;1.53;;;13.60;1.00;;;;;;5076701;28;20396;-80
2020/12/23 08:46:23;;;;;;;1.73;1.63;;;13.60;1.00;;;;;;5093715;28;20755;-81
2020/12/23 08:49:00;;;;;;;1.87;1.63;;;13.60;1.00;;;;;;5093558;28;20446;-81
2020/12/23 08:51:36;;;;;;;3.60;1.40;;;13.70;1.00;;;;;;5092275;28;20443;-86
2020/12/23 08:54:18;;;;;;;1.57;1.47;;;13.60;1.00;;;;;;5088656;28;20420;-80
2020/12/23 08:57:36;;;;;;;1.30;1.20;;;13.60;1.00;;;;;;5089991;28;20874;-78
2020/12/23 09:00:02;;;;;;;1.20;1.10;;;13.70;1.00;;;;;;5094643;28;20416;-75
2020/12/23 09:03:01;;;;;;;1.10;1.10;;;13.70;1.00;;;;;;5084387;28;20408;-75
2020/12/23 09:05:30;;;;;;;1.50;1.30;;;13.70;1.00;;;;;;5102498;28;20429;-76
2020/12/23 09:08:12;;;;;;;1.20;1.00;;;13.70;1.00;;;;;;5113742;28;20370;-76
2020/12/23 09:10:52;;;;;;;1.20;1.10;;;13.70;1.00;;;;;;5113864;28;20423;-76
2020/12/23 09:13:18;;;;;;;1.27;1.17;;;13.80;1.00;;;;;;5072423;28;20429;-75
2020/12/23 09:16:00;;;;;;;1.20;1.10;;;13.80;1.00;;;;;;5073243;28;20429;-76
2020/12/23 09:18:51;;;;;;;1.37;1.10;;;13.80;1.00;;;;;;5073415;28;20483;-75
2020/12/23 09:21:19;;;;;;;1.73;1.00;;;13.80;1.00;;;;;;5089415;28;20454;-77
2020/12/23 09:27:24;;;;;;;1.37;0.73;;;13.90;1.00;;;;;;5073319;28;20416;-77
2020/12/23 09:30:38;;;;;;;2.23;0.90;;;13.90;1.00;;;;;;5072889;28;20504;-77
2020/12/23 09:33:09;;;;;;;2.50;0.80;;;13.90;1.00;;;;;;5013172;28;20424;-77
2020/12/23 09:35:35;;;;;;;0.70;0.70;;;13.90;1.00;;;;;;5011697;28;20934;-76
2020/12/23 09:38:24;;;;;;;1.53;1.00;;;13.90;1.00;;;;;;5011147;28;20463;-75
2020/12/23 09:40:57;;;;;;;0.97;0.83;;;13.90;1.00;;;;;;5011481;28;20834;-75
2020/12/23 09:43:27;;;;;;;0.90;0.90;;;13.90;1.00;;;;;;5034305;28;20414;-76
2020/12/23 09:46:12;;;;;;;0.90;0.90;;;13.90;1.00;;;;;;5051162;28;20449;-76
2020/12/23 09:48:38;;;;;;;0.70;0.70;;;13.90;1.00;;;;;;5022481;28;20930;-75
2020/12/23 09:51:12;;;;;;;1.37;1.00;;;13.80;1.00;;;;;;5014412;28;20547;-76
2020/12/23 09:53:48;;;;;;;0.90;0.90;;;13.90;1.00;;;;;;5022438;28;20565;-76
2020/12/23 09:56:24;;;;;;;3.27;1.00;;;13.90;1.00;;;;;;5022264;28;20492;-76
2020/12/23 09:58:50;;;;;;;4.93;1.97;;;;;;;;;;5039081;28;20462;-76
2020/12/23 10:01:36;;;;;;;1.10;1.00;;;14.00;1.00;;;;;;5023532;28;20428;-76
2020/12/23 10:04:06;;;;;;;0.87;0.87;;;14.00;1.00;;;;;;5032426;28;20457;-76
2020/12/23 10:06:43;;;;;;;1.50;0.97;;;14.00;1.00;;;;;;5035037;28;20410;-79
2020/12/23 10:13:18;;;;;;;0.80;0.80;;;14.00;1.00;;;;;;5086485;28;20441;-79
2020/12/23 10:15:44;;;;;;;0.80;0.80;;;14.00;1.00;;;;;;5094715;28;20525;-79
2020/12/23 10:22:12;;;;;;;1.23;0.80;;;14.00;1.00;;;;;;5096452;28;20165;-79
2020/12/23 10:25:33;;;;;;;0.97;0.70;;;14.00;1.00;;;;;;5075698;28;20408;-79
2020/12/23 10:28:06;;;;;;;1.27;1.17;;;14.00;1.00;;;;;;5075818;28;20392;-79
2020/12/23 10:41:18;;;;;;;4.03;2.03;;;14.00;1.00;;;;;;5084339;28;20935;-79
2020/12/23 10:47:48;;;;;;;3.90;2.47;;;14.10;1.00;;;;;;5090566;28;20399;-79
2020/12/23 10:50:14;;;;;;;2.40;2.20;;;14.20;1.00;;;;;;5085100;28;20413;-79
2020/12/23 10:53:24;;;;;;;3.80;2.83;;;14.20;1.00;;;;;;5095844;28;20449;-79
2020/12/23 10:55:50;;;;;;;3.37;2.70;;;14.10;1.00;;;;;;5086613;28;20206;-79
2020/12/23 11:02:06;;;;;;;6.47;4.33;;;14.30;1.00;;;;;;5087418;28;20220;-79
2020/12/23 11:07:54;;;;;;;4.50;2.27;;;14.40;1.00;;;;;;5113173;28;20402;-74
2020/12/23 11:10:24;;;;;;;3.37;2.60;;;14.40;1.00;;;;;;5088480;28;20401;-74
2020/12/23 11:12:50;;;;;;;4.43;2.80;;;14.50;1.00;;;;;;5074795;28;20172;-74
2020/12/23 11:15:24;;;;;;;3.27;1.90;;;14.60;1.00;;;;;;5079914;28;20415;-75
2020/12/23 11:17:54;;;;;;;2.33;2.13;;;14.60;1.00;;;;;;5085161;28;20197;-75
2020/12/23 11:20:30;;;;;;;6.90;4.67;;;14.60;1.00;;;;;;5082031;28;20398;-74
2020/12/23 11:27:06;;;;;;;2.50;2.30;;;14.60;1.00;;;;;;5103792;28;20442;-78
2020/12/23 11:29:32;;;;;;;2.40;1.80;;;14.70;1.00;;;;;;5089968;28;20411;-76
2020/12/23 11:32:07;;;;;;;3.70;2.20;;;14.70;1.00;;;;;;5088873;28;20431;-79
2020/12/23 11:34:36;;;;;;;1.97;1.70;;;14.60;1.00;;;;;;5076029;28;20186;-77
2020/12/23 11:37:02;;;;;;;5.93;2.20;;;14.50;1.00;;;;;;5074575;28;20447;-74
2020/12/23 11:39:28;;;;;;;3.00;1.90;;;14.60;1.00;;;;;;5091059;28;20431;-75
2020/12/23 11:41:55;;;;;;;2.37;2.00;;;14.60;1.00;;;;;;5080108;28;20167;-75
2020/12/23 11:44:21;;;;;;;1.90;1.80;;;14.40;1.00;;;;;;5074567;28;20401;-75
2020/12/23 11:47:12;;;;;;;5.40;2.20;;;14.40;1.00;;;;;;5074505;28;20416;-76
2020/12/23 11:56:21;;;;;;;1.80;1.70;;;14.20;1.00;;;;;;5073982;28;20416;-79
2020/12/23 11:59:15;;;;;;;4.17;1.77;;;14.10;1.00;;;;;;5082660;28;20423;-79
2020/12/23 12:01:55;;;;;;;1.80;1.70;;;14.00;1.00;;;;;;5094036;28;20352;-78
2020/12/23 12:07:42;;;;;;;3.37;2.07;;;14.00;1.00;;;;;;5094184;28;20446;-78
2020/12/23 12:10:24;;;;;;;3.43;1.97;;;14.00;1.00;;;;;;5092411;28;20824;-78
2020/12/23 12:13:06;;;;;;;1.90;1.80;;;14.10;1.00;;;;;;5077883;28;20213;-78
2020/12/23 12:16:06;;;;;;;4.03;1.97;;;14.00;1.00;;;;;;5077349;28;20475;-79
2020/12/23 12:18:32;;;;;;;1.93;1.83;;;13.90;1.00;;;;;;5082789;28;20449;-79
2020/12/23 12:21:27;;;;;;;3.13;2.20;;;14.00;1.00;;;;;;5073712;28;20397;-78
2020/12/23 12:27:14;;;;;;;8.10;2.40;;;14.00;1.00;;;;;;5073607;28;20388;-80
2020/12/23 12:33:15;;;;;;;5.60;1.63;;;14.00;1.00;;;;;;5073582;28;20563;-79
2020/12/23 12:35:41;;;;;;;2.40;2.20;;;14.00;1.00;;;;;;5073254;28;20436;-79
2020/12/23 12:41:30;;;;;;;1.90;1.80;;;14.00;1.00;;;;;;5093717;28;20954;-79
2020/12/23 12:44:42;;;;;;;3.03;1.87;;;14.10;1.00;;;;;;5093891;28;20513;-79
2020/12/23 12:50:30;;;;;;;2.93;1.60;;;14.10;1.00;;;;;;5091530;28;20403;-79
2020/12/23 12:57:12;;;;;;;1.83;1.57;;;14.10;1.00;;;;;;5087591;28;20429;-79
2020/12/23 12:59:56;;;;;;;3.30;1.60;;;14.10;1.00;;;;;;5093547;28;20403;-80
2020/12/23 13:02:30;;;;;;;2.07;1.97;;;14.20;1.00;;;;;;5074735;28;20420;-81
2020/12/23 13:05:12;;;;;;;2.20;2.00;;;14.10;1.00;;;;;;5073271;28;20385;-79
2020/12/23 13:11:00;;;;;;;2.07;1.70;;;14.10;1.00;;;;;;5091612;28;20411;-78
2020/12/23 13:13:48;;;;;;;3.27;1.93;;;14.10;1.00;;;;;;5093273;28;20397;-79
2020/12/23 13:19:36;;;;;;;3.63;1.90;;;14.00;1.00;;;;;;5073183;28;20401;-79
2020/12/23 13:22:10;;;;;;;2.30;2.10;;;14.00;1.00;;;;;;5071750;28;20802;-76
2020/12/23 13:24:36;;;;;;;1.80;1.63;;;13.90;1.00;;;;;;5075757;28;20385;-75
2020/12/23 13:27:02;;;;;;;2.37;1.97;;;14.00;1.00;;;;;;5091136;28;20402;-75
2020/12/23 13:29:31;;;;;;;1.70;1.57;;;14.00;1.00;;;;;;5083642;28;20797;-74
2020/12/23 13:32:01;;;;;;;6.03;2.00;;;14.00;1.00;;;;;;5095025;28;20174;-79
2020/12/23 13:34:29;;;;;;;2.30;2.10;;;14.00;1.00;;;;;;5097225;28;20799;-74
2020/12/23 13:36:55;;;;;;;3.37;1.90;;;14.00;1.00;;;;;;5084942;28;20531;-76
2020/12/23 13:39:20;;;;;;;2.07;1.93;;;14.00;1.00;;;;;;5077294;28;20536;-75
2020/12/23 13:42:18;;;;;;;4.20;2.30;;;14.00;1.00;;;;;;5081715;28;20173;-75
2020/12/23 13:45:12;;;;;;;3.43;2.37;;;13.90;1.00;;;;;;5097106;28;20389;-75
2020/12/23 13:47:55;;;;;;;2.20;2.00;;;14.00;1.00;;;;;;5097316;28;20400;-76
2020/12/23 13:50:36;;;;;;;2.40;1.73;;;13.90;1.00;;;;;;5096857;28;20397;-76
2020/12/23 13:53:24;;;;;;;3.77;2.17;;;13.90;1.00;;;;;;5085504;28;20791;-76
2020/12/23 13:56:27;;;;;;;2.57;2.37;;;13.90;1.00;;;;;;5077985;28;20413;-75
2020/12/23 13:58:53;;;;;;;3.40;2.53;;;13.80;1.00;;;;;;5026730;28;20463;-76
2020/12/23 14:01:25;;;;;;;3.13;2.20;;;13.90;1.00;;;;;;5014626;28;20446;-76
2020/12/23 14:03:56;;;;;;;2.63;2.10;;;13.80;1.00;;;;;;5014403;28;20177;-75
2020/12/23 14:06:22;;;;;;;3.33;2.30;;;13.70;1.00;;;;;;4998277;28;20431;-75
2020/12/23 14:09:06;;;;;;;2.93;2.40;;;13.80;1.00;;;;;;5014810;28;20407;-76
2020/12/23 14:11:36;;;;;;;7.50;2.77;;;13.70;1.00;;;;;;5014716;28;20443;-75
2020/12/23 14:14:02;;;;;;;2.50;2.30;;;13.70;1.00;;;;;;5020024;28;20442;-76
2020/12/23 14:16:28;;;;;;;6.17;2.50;;;13.70;1.00;;;;;;5016439;28;20931;-74
2020/12/23 14:18:54;;;;;;;3.40;3.10;;;13.60;1.00;;;;;;5014110;28;20203;-74
2020/12/23 14:21:37;;;;;;;2.40;2.20;;;13.60;1.00;;;;;;5014223;28;20248;-75
2020/12/23 14:24:07;;;;;;;4.43;2.97;;;13.60;1.00;;;;;;5028631;28;20211;-74
2020/12/23 14:26:32;;;;;;;4.63;3.03;;;13.60;1.00;;;;;;5033471;28;20882;-74
2020/12/23 14:28:58;;;;;;;9.17;3.20;;;13.60;1.00;;;;;;5016786;28;20424;-76
2020/12/23 14:31:31;;;;;;;15.37;9.43;;;13.50;1.00;;;;;;5014452;28;20630;-75
2020/12/23 14:34:13;;;;;;;3.83;3.10;;;13.50;1.00;;;;;;5078276;28;20203;-76
2020/12/23 14:36:58;;;;;;;5.43;3.17;;;13.60;1.00;;;;;;5095312;28;20472;-75
2020/12/23 14:42:45;;;;;;;9.77;3.40;;;13.40;1.00;;;;;;5095643;28;20391;-80
2020/12/23 14:45:11;;;;;;;3.80;2.93;;;13.40;1.00;;;;;;5095554;28;20393;-75
2020/12/23 14:47:36;;;;;;;9.30;5.17;;;13.40;1.00;;;;;;5095811;28;20211;-76
2020/12/23 14:50:13;;;;;;;6.80;3.70;;;13.40;1.00;;;;;;5077607;28;20183;-75
2020/12/23 14:52:43;;;;;;;28.03;15.47;;;13.40;1.00;;;;;;5075783;28;20185;-75
2020/12/23 14:59:12;;;;;;;5.20;3.30;;;13.40;1.00;;;;;;5078088;28;21052;-78
2020/12/23 15:02:30;;;;;;;4.20;3.23;;;13.40;1.00;;;;;;5095431;28;20399;-78
2020/12/23 15:05:07;;;;;;;5.03;3.17;;;13.40;1.00;;;;;;5074965;28;20436;-78
2020/12/23 15:07:43;;;;;;;4.90;3.37;;;13.30;1.00;;;;;;5075305;28;20406;-78
2020/12/23 15:10:48;;;;;;;5.93;3.70;;;13.30;1.00;;;;;;5093544;28;20427;-78
2020/12/23 15:13:31;;;;;;;4.50;3.10;;;13.30;1.00;;;;;;5074953;28;20389;-78
2020/12/23 15:16:36;;;;;;;4.50;3.60;;;13.30;1.00;;;;;;5081600;28;20450;-79
2020/12/23 15:22:23;;;;;;;7.80;3.73;;;13.30;1.00;;;;;;5077089;28;20462;-78
2020/12/23 15:31:33;;;;;;;4.33;3.00;;;13.30;1.00;;;;;;5074719;28;20427;-78
2020/12/23 15:34:30;;;;;;;4.23;3.53;;;13.30;1.00;;;;;;5091466;28;20436;-81
2020/12/23 15:40:27;;;;;;;4.60;3.30;;;13.30;1.00;;;;;;5074536;28;20555;-79
2020/12/23 15:46:25;;;;;;;6.10;2.93;;;13.20;1.00;;;;;;5080896;28;20428;-77
2020/12/23 15:52:12;;;;;;;4.43;3.37;;;13.10;1.00;;;;;;5090819;28;20948;-77
2020/12/23 15:54:39;;;;;;;3.27;2.80;;;13.10;1.00;;;;;;5080880;28;20437;-76
2020/12/23 15:57:04;;;;;;;6.53;3.43;;;13.10;1.00;;;;;;5086776;28;20199;-76
2020/12/23 15:59:30;;;;;;;3.53;2.80;;;13.10;1.00;;;;;;5076186;28;20471;-75
2020/12/23 16:01:56;;;;;;;8.00;2.90;;;13.10;1.00;;;;;;5093443;28;20185;-75
2020/12/23 16:04:31;;;;;;;9.13;3.10;;;13.10;1.00;;;;;;5082630;28;20249;-75
2020/12/23 16:07:08;;;;;;;4.40;3.17;;;13.10;1.00;;;;;;5094097;28;20248;-75
2020/12/23 16:09:35;;;;;;;3.57;2.53;;;13.20;1.00;;;;;;5074408;28;20385;-75
2020/12/23 16:12:13;;;;;;;6.03;2.87;;;13.20;1.00;;;;;;5074184;28;20394;-76
2020/12/23 16:14:39;;;;;;;3.60;2.60;;;13.10;1.00;;;;;;5085496;28;20948;-76
2020/12/23 16:17:05;;;;;;;3.77;2.07;;;13.20;1.00;;;;;;5088763;28;20409;-75
2020/12/23 16:19:31;;;;;;;5.13;2.77;;;13.00;1.00;;;;;;5074151;28;20657;-74
2020/12/23 16:22:07;;;;;;;2.23;2.03;;;13.00;1.00;;;;;;5073926;28;20170;-74
2020/12/23 16:24:54;;;;;;;2.07;1.87;;;13.00;1.00;;;;;;5074271;28;20151;-74
2020/12/23 16:27:20;;;;;;;2.40;2.07;;;13.00;1.00;;;;;;5076728;28;20507;-74
2020/12/23 16:29:56;;;;;;;1.77;1.60;;;13.00;1.00;;;;;;5082799;28;20432;-74
2020/12/23 16:32:23;;;;;;;2.10;1.83;;;13.00;1.00;;;;;;5073657;28;20413;-74
2020/12/23 16:34:49;;;;;;;2.73;1.67;;;12.90;1.00;;;;;;5078252;28;20413;-74
2020/12/23 16:37:25;;;;;;;3.23;2.07;;;12.90;1.00;;;;;;5073399;28;20428;-74
2020/12/23 16:43:12;;;;;;;7.13;1.80;;;13.00;1.00;;;;;;5091316;28;20484;-80
2020/12/23 16:49:00;;;;;;;3.37;1.97;;;13.00;1.00;;;;;;5093545;28;20542;-81
2020/12/23 16:58:09;;;;;;;1.90;1.73;;;13.00;1.00;;;;;;5073439;28;20492;-79
2020/12/23 17:01:24;;;;;;;1.60;1.50;;;12.90;1.00;;;;;;5077587;28;20385;-79
2020/12/23 17:03:50;;;;;;;2.07;1.87;;;12.90;1.00;;;;;;5077428;28;20159;-79
2020/12/23 17:06:55;;;;;;;1.70;1.60;;;12.90;1.00;;;;;;5096181;28;20404;-79